createdAt,value
2018-01-01T00:03:46.355Z,99198.20
2018-01-01T00:08:47.784Z,99204.66
2018-01-01T00:13:49.142Z,99195.00
2018-01-01T00:18:50.466Z,99209.41
2018-01-01T00:23:51.832Z,99210.42
2018-01-01T00:28:53.202Z,99215.30
2018-01-01T00:33:55.239Z,99227.59
2018-01-01T00:38:56.812Z,99228.21
2018-01-01T00:44:02.228Z,99223.95
2018-01-01T00:49:04.916Z,99214.69
2018-01-01T00:54:06.254Z,99194.08
2018-01-01T00:59:07.647Z,99188.80
2018-01-01T01:04:08.985Z,99208.36
2018-01-01T01:09:10.335Z,99225.16
2018-01-01T01:14:12.371Z,99224.99
2018-01-01T01:19:13.718Z,99224.64
2018-01-01T01:24:15.024Z,99218.33
2018-01-01T01:29:17.099Z,99236.56
2018-01-01T01:34:18.447Z,99252.00
2018-01-01T01:39:19.800Z,99256.97
2018-01-01T01:44:21.881Z,99261.64
2018-01-01T01:49:24.063Z,99263.19
2018-01-01T01:54:29.711Z,99254.12
2018-01-01T01:59:34.737Z,99261.27
2018-01-01T02:04:36.359Z,99253.25
2018-01-01T02:09:37.727Z,99269.33
2018-01-01T02:14:39.066Z,99269.69
2018-01-01T02:19:40.439Z,99265.20
2018-01-01T02:24:41.829Z,99260.50
2018-01-01T02:29:43.208Z,99258.44
2018-01-01T02:34:44.552Z,99258.03
2018-01-01T02:39:45.883Z,99263.84
2018-01-01T02:44:47.242Z,99259.45
2018-01-01T02:49:48.602Z,99261.53
2018-01-01T02:54:50.700Z,99267.77
2018-01-01T02:59:52.789Z,99254.80
2018-01-01T03:04:54.135Z,99264.94
2018-01-01T03:10:01.889Z,99266.15
2018-01-01T03:15:05.071Z,99265.23
2018-01-01T03:20:07.216Z,99270.72
2018-01-01T03:25:08.659Z,99268.41
2018-01-01T03:30:10.040Z,99272.89
2018-01-01T03:35:11.410Z,99275.11
2018-01-01T03:40:12.735Z,99271.88
2018-01-01T03:45:14.067Z,99277.13
2018-01-01T03:50:16.235Z,99268.09
2018-01-01T03:55:17.575Z,99254.43
2018-01-01T04:00:18.922Z,99258.73
2018-01-01T04:05:21.006Z,99245.37
2018-01-01T04:10:22.362Z,99261.66
2018-01-01T04:15:23.723Z,99260.00
2018-01-01T04:20:31.102Z,99267.00
2018-01-01T04:25:33.411Z,99245.64
2018-01-01T04:30:35.476Z,99235.20
2018-01-01T04:35:37.019Z,99235.12
2018-01-01T04:40:38.451Z,99243.97
2018-01-01T04:45:39.839Z,99226.93
2018-01-01T04:50:41.921Z,99244.16
2018-01-01T04:55:43.252Z,99252.48
2018-01-01T05:00:44.587Z,99254.37
2018-01-01T05:05:45.911Z,99274.95
2018-01-01T05:10:47.996Z,99281.09
2018-01-01T05:15:49.327Z,99266.17
2018-01-01T05:20:50.660Z,99281.42
2018-01-01T05:25:52.020Z,99292.55
2018-01-01T05:30:53.376Z,99302.17
2018-01-01T05:36:02.244Z,99324.56
2018-01-01T05:41:06.792Z,99328.97
2018-01-01T05:46:08.768Z,99312.52
2018-01-01T05:51:10.110Z,99335.56
2018-01-01T05:56:12.163Z,99354.29
2018-01-01T06:01:13.536Z,99370.91
2018-01-01T06:06:14.883Z,99375.31
2018-01-01T06:11:23.369Z,99396.63
2018-01-01T06:16:26.885Z,99396.14
2018-01-01T06:21:28.880Z,99392.34
2018-01-01T06:26:30.205Z,99420.63
2018-01-01T06:31:31.594Z,99431.94
2018-01-01T06:36:32.941Z,99444.66
2018-01-01T06:41:34.286Z,99456.38
2018-01-01T06:46:35.599Z,99450.97
2018-01-01T06:51:36.960Z,99466.98
2018-01-01T06:56:38.308Z,99485.17
2018-01-01T07:01:39.691Z,99489.08
2018-01-01T07:06:41.052Z,99514.70
2018-01-01T07:11:42.383Z,99518.73
2018-01-01T07:16:43.716Z,99504.25
2018-01-01T07:21:47.000Z,99528.69
2018-01-01T07:26:51.193Z,99540.98
2018-01-01T07:31:53.808Z,99535.34
2018-01-01T07:36:56.207Z,99534.84
2018-01-01T07:41:58.292Z,99553.97
2018-01-01T07:46:59.708Z,99554.94
2018-01-01T07:52:01.054Z,99546.27
2018-01-01T07:57:02.428Z,99590.78
2018-01-01T08:02:03.770Z,99597.46
2018-01-01T08:07:05.836Z,99616.09
2018-01-01T08:12:07.198Z,99623.80
2018-01-01T08:17:08.594Z,99623.89
2018-01-01T08:22:09.940Z,99645.01
2018-01-01T08:27:12.019Z,99662.30
2018-01-01T08:32:13.626Z,99653.91
2018-01-01T08:37:14.971Z,99657.52
2018-01-01T08:42:21.295Z,99677.34
2018-01-01T08:47:23.849Z,99689.19
2018-01-01T08:52:26.705Z,99699.48
2018-01-01T08:57:28.175Z,99714.13
2018-01-01T09:02:29.521Z,99704.89
2018-01-01T09:07:31.609Z,99712.97
2018-01-01T09:12:33.703Z,99713.28
2018-01-01T09:17:35.023Z,99718.07
2018-01-01T09:22:36.396Z,99725.00
2018-01-01T09:27:37.737Z,99726.44
2018-01-01T09:32:39.071Z,99721.89
2018-01-01T09:37:40.516Z,99731.32
2018-01-01T09:42:41.856Z,99724.84
2018-01-01T09:47:43.215Z,99723.36
2018-01-01T09:52:44.595Z,99730.31
2018-01-01T09:57:45.978Z,99725.45
2018-01-01T10:02:51.084Z,99728.28
2018-01-01T10:07:53.641Z,99712.27
2018-01-01T10:12:56.612Z,99715.82
2018-01-01T10:17:58.018Z,99693.77
2018-01-01T10:22:59.404Z,99700.00
2018-01-01T10:28:00.748Z,99705.88
2018-01-01T10:33:02.109Z,99698.76
2018-01-01T10:38:04.256Z,99690.48
2018-01-01T10:43:05.628Z,99686.50
2018-01-01T10:48:07.726Z,99666.41
2018-01-01T10:53:09.821Z,99668.08
2018-01-01T10:58:11.191Z,99658.83
2018-01-01T11:03:12.514Z,99651.56
2018-01-01T11:08:13.894Z,99646.83
2018-01-01T11:13:15.266Z,99634.31
2018-01-01T11:18:21.399Z,99630.47
2018-01-01T11:23:26.295Z,99620.05
2018-01-01T11:28:29.505Z,99604.75
2018-01-01T11:33:30.876Z,99607.98
2018-01-01T11:38:32.244Z,99609.72
2018-01-01T11:43:33.592Z,99599.88
2018-01-01T11:48:34.944Z,99597.52
2018-01-01T11:53:36.281Z,99595.47
2018-01-01T11:58:37.604Z,99578.75
2018-01-01T12:03:38.951Z,99594.67
2018-01-01T12:08:40.310Z,99598.13
2018-01-01T12:13:41.663Z,99593.16
2018-01-01T12:18:43.016Z,99591.58
2018-01-01T12:23:44.356Z,99591.00
2018-01-01T12:28:45.693Z,99591.13
2018-01-01T12:33:53.985Z,99591.89
2018-01-01T12:38:57.128Z,99595.62
2018-01-01T12:43:59.263Z,99601.89
2018-01-01T12:49:01.370Z,99608.58
2018-01-01T12:54:02.758Z,99595.11
2018-01-01T12:59:04.156Z,99589.08
2018-01-01T13:04:06.230Z,99571.86
2018-01-01T13:09:07.687Z,99574.53
2018-01-01T13:14:09.071Z,99568.56
2018-01-01T13:19:10.396Z,99564.86
2018-01-01T13:24:11.756Z,99555.47
2018-01-01T13:29:13.082Z,99555.12
2018-01-01T13:34:14.427Z,99544.13
2018-01-01T13:39:15.789Z,99545.42
2018-01-01T13:44:22.008Z,99547.41
2018-01-01T13:49:25.419Z,99547.50
2018-01-01T13:54:26.949Z,99540.53
2018-01-01T13:59:28.472Z,99528.19
2018-01-01T14:04:29.839Z,99524.41
2018-01-01T14:09:31.179Z,99524.28
2018-01-01T14:14:32.516Z,99526.80
2018-01-01T14:19:33.868Z,99525.08
2018-01-01T14:24:35.240Z,99529.44
2018-01-01T14:29:36.867Z,99533.09
2018-01-01T14:34:38.339Z,99533.71
2018-01-01T14:39:39.703Z,99536.91
2018-01-01T14:44:41.052Z,99527.94
2018-01-01T14:49:43.143Z,99525.54
2018-01-01T14:54:44.792Z,99512.87
2018-01-01T14:59:46.850Z,99511.73
2018-01-01T15:04:48.230Z,99504.71
2018-01-01T15:09:49.631Z,99497.14
2018-01-01T15:14:50.994Z,99487.33
2018-01-01T15:19:52.320Z,99488.81
2018-01-01T15:24:54.427Z,99490.61
2018-01-01T15:29:56.559Z,99487.32
2018-01-01T15:34:58.847Z,99479.84
2018-01-01T15:40:00.915Z,99474.17
2018-01-01T15:45:02.264Z,99480.70
2018-01-01T15:50:03.659Z,99479.57
2018-01-01T15:55:05.001Z,99480.17
2018-01-01T16:00:09.470Z,99478.05
2018-01-01T16:05:11.917Z,99467.58
2018-01-01T16:10:14.495Z,99465.70
2018-01-01T16:15:16.427Z,99477.56
2018-01-01T16:20:18.550Z,99469.48
2018-01-01T16:25:19.903Z,99457.39
2018-01-01T16:30:21.207Z,99456.74
2018-01-01T16:35:23.323Z,99455.36
2018-01-01T16:40:24.664Z,99444.55
2018-01-01T16:45:26.207Z,99413.66
2018-01-01T16:50:28.433Z,99444.15
2018-01-01T16:55:29.862Z,99449.39
2018-01-01T17:00:31.207Z,99448.84
2018-01-01T17:05:32.568Z,99439.39
2018-01-01T17:10:33.880Z,99437.73
2018-01-01T17:15:35.227Z,99436.87
2018-01-01T17:20:40.488Z,99433.38
2018-01-01T17:25:42.872Z,99422.23
2018-01-01T17:30:45.666Z,99424.34
2018-01-01T17:35:47.207Z,99407.80
2018-01-01T17:40:49.678Z,99402.71
2018-01-01T17:45:51.803Z,99396.78
2018-01-01T17:50:53.207Z,99396.64
2018-01-01T17:55:54.608Z,99395.63
2018-01-01T18:00:56.016Z,99397.35
2018-01-01T18:05:57.493Z,99402.95
2018-01-01T18:10:58.843Z,99393.42
2018-01-01T18:16:01.071Z,99381.89
2018-01-01T18:21:03.441Z,99386.97
2018-01-01T18:26:04.822Z,99385.80
2018-01-01T18:31:06.661Z,99386.59
2018-01-01T18:36:14.965Z,99383.91
2018-01-01T18:41:18.630Z,99377.36
2018-01-01T18:46:20.103Z,99370.96
2018-01-01T18:51:21.477Z,99364.33
2018-01-01T18:56:22.831Z,99367.95
2018-01-01T19:01:24.187Z,99361.41
2018-01-01T19:06:25.522Z,99357.73
2018-01-01T19:11:27.594Z,99352.38
2018-01-01T19:16:29.174Z,99347.59
2018-01-01T19:21:30.614Z,99357.61
2018-01-01T19:26:32.680Z,99356.88
2018-01-01T19:31:34.023Z,99360.45
2018-01-01T19:36:35.364Z,99347.16
2018-01-01T19:41:37.375Z,99353.04
2018-01-01T19:46:42.389Z,99353.14
2018-01-01T19:51:44.669Z,99363.48
2018-01-01T19:56:46.527Z,99363.34
2018-01-01T20:01:48.063Z,99317.96
2018-01-01T20:06:50.164Z,99370.48
2018-01-01T20:11:51.480Z,99371.34
2018-01-01T20:16:53.747Z,99369.31
2018-01-01T20:21:55.110Z,99371.95
2018-01-01T20:26:56.462Z,99384.03
2018-01-01T20:31:59.141Z,99375.83
2018-01-01T20:37:00.503Z,99373.86
2018-01-01T20:42:01.863Z,99372.97
2018-01-01T20:47:03.370Z,99379.06
2018-01-01T20:52:04.815Z,99381.67
2018-01-01T20:57:06.182Z,99377.91
2018-01-01T21:02:07.558Z,99380.66
2018-01-01T21:07:08.891Z,99382.02
2018-01-01T21:12:10.235Z,99374.73
2018-01-01T21:17:12.307Z,99386.63
2018-01-01T21:22:13.754Z,99394.17
2018-01-01T21:27:15.228Z,99392.64
2018-01-01T21:32:16.731Z,99389.85
2018-01-01T21:37:18.057Z,99390.52
2018-01-01T21:42:19.407Z,99394.62
2018-01-01T21:47:23.535Z,99408.52
2018-01-01T21:52:31.661Z,99415.56
2018-01-01T21:57:35.751Z,99417.29
2018-01-01T22:02:38.247Z,99432.41
2018-01-01T22:07:43.925Z,99437.53
2018-01-01T22:12:45.776Z,99439.47
2018-01-01T22:17:47.241Z,99457.30
2018-01-01T22:22:48.559Z,99459.80
2018-01-01T22:27:50.675Z,99463.44
2018-01-01T22:32:58.055Z,99463.94
2018-01-01T22:38:00.292Z,99470.91
2018-01-01T22:43:02.046Z,99471.55
2018-01-01T22:48:03.393Z,99474.80
2018-01-01T22:53:05.525Z,99482.13
2018-01-01T22:58:06.870Z,99485.94
2018-01-01T23:03:08.220Z,99492.05
2018-01-01T23:08:09.727Z,99493.33
2018-01-01T23:13:11.057Z,99508.02
2018-01-01T23:18:13.213Z,99512.70
2018-01-01T23:23:14.543Z,99513.06
2018-01-01T23:28:15.860Z,99525.39
2018-01-01T23:33:17.220Z,99524.58
2018-01-01T23:38:20.132Z,99533.19
2018-01-01T23:43:21.495Z,99546.50
2018-01-01T23:48:26.917Z,99542.67
2018-01-01T23:53:30.749Z,99552.01
2018-01-01T23:58:32.992Z,99556.36
